Time;durP1;ratioP1;P1;durP2;ratioP2;P2;SDS_P1;SDS_P2;PMS_P1;PMS_P2;Temp;Humidity;BMP_temperature;BMP_pressure;BME280_temperature;BME280_humidity;BME280_pressure;Samples;Min_cycle;Max_cycle;Signal;HPM_P1;HPM_P2
2023/08/04 00:00:18;;;;;;;;;;;15.10;99.90;;;;;;5111634;28;19912;-66
2023/08/04 00:02:45;;;;;;;;;;;15.20;99.90;;;;;;5107576;28;19992;-67
2023/08/04 00:05:11;;;;;;;;;;;15.30;99.90;;;;;;5112914;28;20010;-71
2023/08/04 00:07:38;;;;;;;;;;;15.40;99.90;;;;;;5112297;28;20462;-66
2023/08/04 00:10:05;;;;;;;;;;;15.50;99.90;;;;;;5091833;28;19931;-67
2023/08/04 00:12:32;;;;;;;;;;;15.60;99.90;;;;;;5092249;28;19912;-65
2023/08/04 00:14:58;;;;;;;;;;;15.70;99.90;;;;;;5093949;28;19908;-64
2023/08/04 00:17:25;;;;;;;;;;;15.70;99.90;;;;;;5112837;28;20361;-69
2023/08/04 00:19:52;;;;;;;;;;;15.90;99.90;;;;;;5110709;28;19912;-66
2023/08/04 00:22:18;;;;;;;;;;;16.00;99.90;;;;;;5112261;28;20273;-64
2023/08/04 00:24:45;;;;;;;;;;;16.10;99.90;;;;;;5113047;28;19918;-68
2023/08/04 00:27:12;;;;;;;;;;;16.20;99.90;;;;;;5108811;28;19963;-66
2023/08/04 00:29:39;;;;;;;;;;;16.30;99.90;;;;;;5091540;28;19912;-63
2023/08/04 00:32:06;;;;;;;;;;;16.30;99.90;;;;;;5094536;28;20283;-67
2023/08/04 00:34:33;;;;;;;;;;;16.40;99.90;;;;;;5112503;28;19950;-65
2023/08/04 00:36:59;;;;;;;;;;;16.50;99.90;;;;;;5112009;28;19908;-66
2023/08/04 00:39:26;;;;;;;;;;;16.60;99.90;;;;;;5112052;28;19915;-65
2023/08/04 00:41:52;;;;;;;;;;;16.70;99.90;;;;;;5112274;28;19912;-67
2023/08/04 00:44:19;;;;;;;;;;;16.80;99.90;;;;;;5112583;28;20424;-65
2023/08/04 00:46:46;;;;;;;;;;;16.80;99.90;;;;;;5112212;28;19915;-67
2023/08/04 00:49:12;;;;;;;;;;;17.00;99.90;;;;;;5109669;28;19916;-64
2023/08/04 00:51:39;;;;;;;;;;;17.20;99.90;;;;;;5111377;28;20259;-65
2023/08/04 00:54:07;;;;;;;;;;;17.30;99.90;;;;;;5112634;28;19908;-64
2023/08/04 00:56:34;;;;;;;;;;;17.30;99.90;;;;;;5097495;28;20380;-63
2023/08/04 00:59:01;;;;;;;;;;;17.40;99.90;;;;;;5111464;28;19915;-64
2023/08/04 01:01:27;;;;;;;;;;;17.50;99.90;;;;;;5111920;28;19912;-64
2023/08/04 01:03:55;;;;;;;;;;;17.60;99.90;;;;;;5105813;28;19919;-68
2023/08/04 01:06:28;;;;;;;;;;;17.70;99.90;;;;;;5110454;28;19919;-67
2023/08/04 01:09:14;;;;;;;;;;;17.80;99.90;;;;;;5100683;28;19915;-67
2023/08/04 01:11:45;;;;;;;;;;;17.90;99.90;;;;;;5091815;28;20394;-68
2023/08/04 01:14:12;;;;;;;;;;;18.10;99.90;;;;;;5103333;28;19918;-66
2023/08/04 01:16:38;;;;;;;;;;;18.20;99.90;;;;;;5115253;28;19907;-65
2023/08/04 01:19:05;;;;;;;;;;;18.30;99.90;;;;;;5113775;28;20368;-64
2023/08/04 01:21:41;;;;;;;;;;;18.40;99.90;;;;;;5116292;28;19912;-67
2023/08/04 01:24:08;;;;;;;;;;;18.60;99.90;;;;;;5112582;28;19958;-71
2023/08/04 01:26:36;;;;;;;;;;;18.80;99.90;;;;;;5115900;28;19908;-69
2023/08/04 01:29:03;;;;;;;;;;;18.80;99.90;;;;;;5103461;28;20037;-69
2023/08/04 01:31:30;;;;;;;;;;;19.00;99.90;;;;;;5095513;28;19908;-65
2023/08/04 01:33:56;;;;;;;;;;;19.20;99.90;;;;;;5095116;28;19995;-65
2023/08/04 01:36:23;;;;;;;;;;;19.40;99.80;;;;;;5095575;28;20430;-71
2023/08/04 01:38:50;;;;;;;;;;;19.50;99.30;;;;;;5095167;28;20429;-67
2023/08/04 01:41:16;;;;;;;;;;;19.60;98.90;;;;;;5101432;28;19995;-70
2023/08/04 01:43:43;;;;;;;;;;;19.70;98.70;;;;;;5110280;28;20295;-67
2023/08/04 01:46:09;;;;;;;;;;;19.70;98.20;;;;;;5115561;28;19914;-70
2023/08/04 01:48:36;;;;;;;;;;;20.00;98.40;;;;;;5114914;28;19908;-68
2023/08/04 01:51:03;;;;;;;;;;;20.10;97.60;;;;;;5113902;28;19922;-66
2023/08/04 01:53:29;;;;;;;;;;;20.30;97.60;;;;;;5115424;28;19908;-66
2023/08/04 01:55:56;;;;;;;;;;;20.60;97.50;;;;;;5113820;28;20024;-68
2023/08/04 01:58:22;;;;;;;;;;;20.70;97.40;;;;;;5108415;28;19912;-69
2023/08/04 02:00:49;;;;;;;;;;;20.80;96.20;;;;;;5099611;28;19915;-68
2023/08/04 02:03:16;;;;;;;;;;;21.00;95.40;;;;;;5113730;28;19927;-68
2023/08/04 02:05:47;;;;;;;;;;;21.00;94.50;;;;;;5115094;28;19996;-69
2023/08/04 02:08:14;;;;;;;;;;;21.20;94.90;;;;;;5110124;28;19915;-64
2023/08/04 02:10:50;;;;;;;;;;;21.40;93.70;;;;;;5094515;28;20383;-64
2023/08/04 02:13:16;;;;;;;;;;;21.50;94.10;;;;;;5094597;28;19931;-65
2023/08/04 02:15:43;;;;;;;;;;;21.60;93.80;;;;;;5094294;28;19915;-67
2023/08/04 02:18:10;;;;;;;;;;;21.70;93.40;;;;;;5094675;28;20258;-64
2023/08/04 02:20:36;;;;;;;;;;;21.80;93.40;;;;;;5110249;28;19938;-66
2023/08/04 02:23:05;;;;;;;;;;;21.90;93.20;;;;;;5114252;28;19961;-68
2023/08/04 02:25:31;;;;;;;;;;;22.00;93.00;;;;;;5113995;28;19953;-70
2023/08/04 02:27:58;;;;;;;;;;;22.00;92.70;;;;;;5114035;28;19919;-67
2023/08/04 02:30:25;;;;;;;;;;;22.10;92.40;;;;;;5096167;28;20276;-69
2023/08/04 02:32:51;;;;;;;;;;;22.10;91.90;;;;;;5105795;28;19920;-70
2023/08/04 02:35:18;;;;;;;;;;;22.10;91.40;;;;;;5093655;28;19927;-67
2023/08/04 02:37:45;;;;;;;;;;;22.10;90.70;;;;;;5094044;28;19912;-66
2023/08/04 02:40:11;;;;;;;;;;;22.30;89.80;;;;;;5093961;28;19912;-66
2023/08/04 02:42:38;;;;;;;;;;;22.70;89.10;;;;;;5100524;28;20007;-68
2023/08/04 02:45:05;;;;;;;;;;;23.00;86.50;;;;;;5113415;28;20395;-71
2023/08/04 02:47:32;;;;;;;;;;;23.10;85.20;;;;;;5114018;28;20512;-67
2023/08/04 02:49:58;;;;;;;;;;;23.00;82.70;;;;;;5093841;28;19908;-70
2023/08/04 02:52:25;;;;;;;;;;;23.10;83.10;;;;;;5094086;28;19908;-66
2023/08/04 02:54:55;;;;;;;;;;;23.10;83.00;;;;;;5094156;28;19961;-69
2023/08/04 02:57:21;;;;;;;;;;;23.10;83.20;;;;;;5093386;28;19957;-71
2023/08/04 02:59:48;;;;;;;;;;;23.20;81.30;;;;;;5111431;28;19911;-67
2023/08/04 03:02:14;;;;;;;;;;;23.20;80.60;;;;;;5112616;28;19995;-69
2023/08/04 03:04:41;;;;;;;;;;;23.30;81.10;;;;;;5113298;28;19959;-72
2023/08/04 03:07:08;;;;;;;;;;;23.50;81.00;;;;;;5113395;28;19914;-69
2023/08/04 03:09:34;;;;;;;;;;;23.70;80.60;;;;;;5096962;28;19930;-68
2023/08/04 03:12:01;;;;;;;;;;;24.10;79.10;;;;;;5093653;28;19908;-67
2023/08/04 03:14:28;;;;;;;;;;;24.40;78.70;;;;;;5109397;28;19912;-67
2023/08/04 03:16:55;;;;;;;;;;;24.90;76.60;;;;;;5113241;28;19993;-67
2023/08/04 03:19:22;;;;;;;;;;;25.30;74.20;;;;;;5112857;28;19912;-68
2023/08/04 03:21:48;;;;;;;;;;;25.50;72.60;;;;;;5113761;28;19937;-66
2023/08/04 03:24:15;;;;;;;;;;;25.50;71.90;;;;;;5113790;28;19938;-67
2023/08/04 03:26:41;;;;;;;;;;;25.60;73.10;;;;;;5095216;28;19912;-66
2023/08/04 03:29:08;;;;;;;;;;;25.70;73.10;;;;;;5100264;28;20003;-68
2023/08/04 03:31:35;;;;;;;;;;;26.50;71.40;;;;;;5093366;28;19954;-71
2023/08/04 03:34:01;;;;;;;;;;;28.20;67.80;;;;;;5105288;28;19919;-68
2023/08/04 03:36:28;;;;;;;;;;;29.70;64.10;;;;;;5111921;28;19918;-70
2023/08/04 03:38:55;;;;;;;;;;;31.20;63.70;;;;;;5112656;28;20420;-69
2023/08/04 03:41:21;;;;;;;;;;;32.80;59.40;;;;;;5106224;28;20007;-70
2023/08/04 03:43:48;;;;;;;;;;;33.50;56.60;;;;;;5092666;28;20419;-71
2023/08/04 03:46:15;;;;;;;;;;;33.70;55.30;;;;;;5093174;28;19908;-68
2023/08/04 03:48:41;;;;;;;;;;;34.30;54.50;;;;;;5096175;28;19947;-70
2023/08/04 03:51:08;;;;;;;;;;;35.10;53.30;;;;;;5112961;28;19911;-67
2023/08/04 03:53:34;;;;;;;;;;;35.70;52.40;;;;;;5113070;28;19908;-67
2023/08/04 03:56:01;;;;;;;;;;;35.50;52.00;;;;;;5113108;28;20333;-68
2023/08/04 03:58:28;;;;;;;;;;;36.00;50.80;;;;;;5106949;28;19999;-69
2023/08/04 04:00:54;;;;;;;;;;;36.10;51.20;;;;;;5089968;28;19965;-69
2023/08/04 04:03:21;;;;;;;;;;;36.40;51.00;;;;;;5112259;28;19966;-66
2023/08/04 04:05:48;;;;;;;;;;;36.30;50.10;;;;;;5094457;28;20352;-66
2023/08/04 04:08:14;;;;;;;;;;;35.70;49.70;;;;;;5112212;28;20363;-67
2023/08/04 04:10:41;;;;;;;;;;;35.40;49.80;;;;;;5093763;28;19908;-70
2023/08/04 04:13:07;;;;;;;;;;;35.50;50.40;;;;;;5097169;28;19954;-66
2023/08/04 04:15:34;;;;;;;;;;;35.30;49.10;;;;;;5111693;28;20457;-67
2023/08/04 04:18:01;;;;;;;;;;;35.20;49.60;;;;;;5112342;28;19911;-69
2023/08/04 04:20:27;;;;;;;;;;;35.30;49.40;;;;;;5112106;28;19908;-65
2023/08/04 04:22:54;;;;;;;;;;;35.60;48.10;;;;;;5112655;28;19939;-67
2023/08/04 04:25:20;;;;;;;;;;;35.80;48.10;;;;;;5111946;28;19908;-71
2023/08/04 04:27:47;;;;;;;;;;;35.40;48.10;;;;;;5110595;28;19912;-66
2023/08/04 04:30:14;;;;;;;;;;;34.90;48.40;;;;;;5111461;28;20280;-70
2023/08/04 04:32:40;;;;;;;;;;;33.90;48.50;;;;;;5112594;28;19915;-67
2023/08/04 04:35:07;;;;;;;;;;;32.40;49.80;;;;;;5112288;28;19914;-70
2023/08/04 04:37:34;;;;;;;;;;;31.10;51.90;;;;;;5112286;28;19912;-69
2023/08/04 04:40:00;;;;;;;;;;;30.00;52.20;;;;;;5111334;28;20214;-69
2023/08/04 04:42:27;;;;;;;;;;;29.00;53.20;;;;;;5100079;28;19962;-72
2023/08/04 04:44:55;;;;;;;;;;;28.40;54.20;;;;;;5096343;28;19927;-67
2023/08/04 04:47:22;;;;;;;;;;;27.90;55.70;;;;;;5111600;28;19911;-69
2023/08/04 04:49:48;;;;;;;;;;;27.90;56.60;;;;;;5114798;28;19937;-68
2023/08/04 04:52:32;;;;;;;;;;;28.50;58.50;;;;;;5116317;28;19908;-67
2023/08/04 04:55:00;;;;;;;;;;;28.60;59.60;;;;;;5116599;28;19953;-68
2023/08/04 04:57:27;;;;;;;;;;;28.50;60.60;;;;;;5115269;28;19982;-67
2023/08/04 04:59:54;;;;;;;;;;;28.20;63.40;;;;;;5107804;28;20198;-67
2023/08/04 05:02:20;;;;;;;;;;;27.80;65.40;;;;;;5114456;28;20002;-70
2023/08/04 05:04:47;;;;;;;;;;;27.30;66.90;;;;;;5115440;28;19923;-66
2023/08/04 05:07:14;;;;;;;;;;;26.80;68.40;;;;;;5109340;28;19919;-66
2023/08/04 05:09:41;;;;;;;;;;;26.40;69.00;;;;;;5103995;28;20372;-67
2023/08/04 05:12:07;;;;;;;;;;;26.10;70.30;;;;;;5115490;28;20276;-66
2023/08/04 05:14:34;;;;;;;;;;;25.90;71.00;;;;;;5115229;28;19907;-67
2023/08/04 05:17:01;;;;;;;;;;;25.70;72.60;;;;;;5116265;28;19908;-67
2023/08/04 05:19:28;;;;;;;;;;;25.60;75.30;;;;;;5108303;28;20006;-66
2023/08/04 05:21:54;;;;;;;;;;;25.50;76.70;;;;;;5106811;28;19912;-65
2023/08/04 05:24:21;;;;;;;;;;;25.60;78.00;;;;;;5107768;28;19924;-66
2023/08/04 05:26:47;;;;;;;;;;;25.70;77.10;;;;;;5094998;28;20357;-68
2023/08/04 05:29:14;;;;;;;;;;;25.40;77.50;;;;;;5113420;28;19912;-68
2023/08/04 05:31:41;;;;;;;;;;;25.20;78.80;;;;;;5113537;28;19960;-67
2023/08/04 05:34:07;;;;;;;;;;;25.10;79.20;;;;;;5113001;28;20395;-69
2023/08/04 05:36:34;;;;;;;;;;;25.00;80.10;;;;;;5115480;28;20003;-67
2023/08/04 05:39:00;;;;;;;;;;;24.90;80.80;;;;;;5102810;28;20378;-66
2023/08/04 05:41:27;;;;;;;;;;;24.80;80.60;;;;;;5108608;28;19908;-66
2023/08/04 05:43:54;;;;;;;;;;;24.60;82.10;;;;;;5114488;28;19924;-67
2023/08/04 05:46:20;;;;;;;;;;;24.70;82.50;;;;;;5115323;28;19961;-68
2023/08/04 05:48:47;;;;;;;;;;;25.00;80.90;;;;;;5112535;28;19989;-66
2023/08/04 05:51:15;;;;;;;;;;;25.10;81.50;;;;;;5114409;28;19919;-70
2023/08/04 05:53:43;;;;;;;;;;;25.30;80.40;;;;;;5114224;28;19930;-68
2023/08/04 05:56:10;;;;;;;;;;;25.30;80.30;;;;;;5114252;28;19914;-65
2023/08/04 05:58:36;;;;;;;;;;;25.20;80.30;;;;;;5111447;28;20284;-70
2023/08/04 06:01:03;;;;;;;;;;;25.10;80.50;;;;;;5110720;28;19912;-68
2023/08/04 06:03:29;;;;;;;;;;;24.60;81.90;;;;;;5113456;28;19970;-69
2023/08/04 06:05:56;;;;;;;;;;;24.50;82.60;;;;;;5113691;28;19915;-65
2023/08/04 06:08:23;;;;;;;;;;;24.60;83.10;;;;;;5110373;28;20382;-66
2023/08/04 06:10:49;;;;;;;;;;;25.10;82.40;;;;;;5113923;28;20375;-69
2023/08/04 06:13:16;;;;;;;;;;;25.90;78.80;;;;;;5114031;28;19907;-70
2023/08/04 06:15:43;;;;;;;;;;;26.40;77.00;;;;;;5114486;28;19919;-65
2023/08/04 06:18:09;;;;;;;;;;;26.90;76.50;;;;;;5112651;28;20452;-68
2023/08/04 06:20:36;;;;;;;;;;;27.70;76.00;;;;;;5113845;28;19952;-69
2023/08/04 06:23:03;;;;;;;;;;;29.00;73.50;;;;;;5113530;28;20389;-69
2023/08/04 06:25:29;;;;;;;;;;;30.00;70.80;;;;;;5114339;28;19993;-66
2023/08/04 06:27:56;;;;;;;;;;;30.20;69.50;;;;;;5113492;28;20041;-70
2023/08/04 06:30:23;;;;;;;;;;;30.20;69.70;;;;;;5113029;28;19919;-71
2023/08/04 06:32:49;;;;;;;;;;;29.60;70.00;;;;;;5113753;28;19907;-70
2023/08/04 06:35:16;;;;;;;;;;;28.70;71.00;;;;;;5113202;28;19915;-71
2023/08/04 06:37:43;;;;;;;;;;;27.90;72.20;;;;;;5094866;28;20375;-69
2023/08/04 06:40:10;;;;;;;;;;;26.50;74.10;;;;;;5112520;28;19915;-69
2023/08/04 06:42:37;;;;;;;;;;;25.00;77.60;;;;;;5110381;28;20272;-70
2023/08/04 06:45:03;;;;;;;;;;;23.80;79.80;;;;;;5111998;28;19976;-70
2023/08/04 06:47:30;;;;;;;;;;;23.10;82.60;;;;;;5095983;28;20380;-69
2023/08/04 06:49:56;;;;;;;;;;;22.40;84.70;;;;;;5105394;28;19947;-70
2023/08/04 06:52:23;;;;;;;;;;;21.80;86.70;;;;;;5113795;28;19981;-68
2023/08/04 06:54:51;;;;;;;;;;;21.60;88.50;;;;;;5111691;28;19912;-67
2023/08/04 06:57:17;;;;;;;;;;;21.30;89.50;;;;;;5096523;28;19965;-69
2023/08/04 06:59:44;;;;;;;;;;;21.00;90.30;;;;;;5109826;28;20322;-69
2023/08/04 07:02:10;;;;;;;;;;;20.80;90.80;;;;;;5112959;28;19957;-69
2023/08/04 07:04:37;;;;;;;;;;;20.60;91.50;;;;;;5102324;28;19974;-71
2023/08/04 07:07:04;;;;;;;;;;;20.30;92.10;;;;;;5105528;28;19943;-67
2023/08/04 07:09:30;;;;;;;;;;;20.00;92.60;;;;;;5105741;28;19923;-71
2023/08/04 07:11:57;;;;;;;;;;;19.90;93.40;;;;;;5112501;28;19955;-67
2023/08/04 07:14:24;;;;;;;;;;;19.70;93.80;;;;;;5112066;28;19916;-67
2023/08/04 07:16:50;;;;;;;;;;;19.60;94.10;;;;;;5112700;28;19912;-69
2023/08/04 07:19:17;;;;;;;;;;;19.40;94.50;;;;;;5108808;27;19916;-68
2023/08/04 07:21:46;;;;;;;;;;;19.30;95.00;;;;;;5112815;28;20008;-68
2023/08/04 07:24:13;;;;;;;;;;;19.20;95.50;;;;;;5099485;28;19947;-69
2023/08/04 07:26:40;;;;;;;;;;;19.20;95.80;;;;;;5106356;27;20002;-68
2023/08/04 07:29:06;;;;;;;;;;;19.10;96.30;;;;;;5111248;27;19947;-69
2023/08/04 07:31:33;;;;;;;;;;;18.90;96.90;;;;;;5111419;28;20378;-70
2023/08/04 07:34:00;;;;;;;;;;;18.80;97.50;;;;;;5095059;28;20250;-69
2023/08/04 07:36:26;;;;;;;;;;;18.80;97.80;;;;;;5101584;28;19912;-68
2023/08/04 07:38:54;;;;;;;;;;;18.70;98.20;;;;;;5089191;28;20285;-69
2023/08/04 07:41:21;;;;;;;;;;;18.60;98.50;;;;;;5112507;27;20364;-69
2023/08/04 07:43:47;;;;;;;;;;;18.60;99.00;;;;;;5081881;28;20311;-71
2023/08/04 07:46:34;;;;;;;;;;;18.50;99.30;;;;;;5104505;28;19912;-71
2023/08/04 07:49:01;;;;;;;;;;;18.40;99.50;;;;;;5106790;28;20275;-71
2023/08/04 07:51:27;;;;;;;;;;;18.40;99.80;;;;;;5112304;28;19968;-72
2023/08/04 07:53:54;;;;;;;;;;;18.40;99.90;;;;;;5109047;28;19942;-69
2023/08/04 07:56:21;;;;;;;;;;;18.30;99.90;;;;;;5111686;28;19937;-72
2023/08/04 07:58:48;;;;;;;;;;;18.30;99.90;;;;;;5104900;28;20297;-68
2023/08/04 08:01:15;;;;;;;;;;;18.30;99.90;;;;;;5111238;27;19908;-70
2023/08/04 08:03:43;;;;;;;;;;;18.20;99.90;;;;;;5101073;28;19969;-67
2023/08/04 08:06:09;;;;;;;;;;;18.20;99.90;;;;;;5096783;28;19965;-71
2023/08/04 08:08:36;;;;;;;;;;;18.20;99.90;;;;;;5099117;28;19989;-68
2023/08/04 08:11:07;;;;;;;;;;;18.10;99.90;;;;;;5110178;27;19911;-71
2023/08/04 08:13:33;;;;;;;;;;;18.10;99.90;;;;;;5100564;28;19912;-71
2023/08/04 08:16:06;;;;;;;;;;;18.20;99.90;;;;;;5095352;28;19919;-71
2023/08/04 08:18:32;;;;;;;;;;;18.10;99.90;;;;;;5106935;28;19911;-67
2023/08/04 08:20:59;;;;;;;;;;;18.10;99.90;;;;;;5104068;28;19912;-66
2023/08/04 08:23:25;;;;;;;;;;;18.10;99.90;;;;;;5102679;28;20327;-67
2023/08/04 08:25:52;;;;;;;;;;;18.00;99.90;;;;;;5093380;28;19912;-70
2023/08/04 08:28:19;;;;;;;;;;;18.00;99.90;;;;;;5096830;28;20334;-67
2023/08/04 08:30:45;;;;;;;;;;;18.00;99.90;;;;;;5104502;28;19965;-68
2023/08/04 08:33:12;;;;;;;;;;;18.00;99.90;;;;;;5110615;28;19912;-71
2023/08/04 08:35:38;;;;;;;;;;;17.90;99.90;;;;;;5105789;28;19918;-70
2023/08/04 08:38:05;;;;;;;;;;;17.90;99.90;;;;;;5107908;28;19918;-69
2023/08/04 08:40:32;;;;;;;;;;;17.90;99.90;;;;;;5110393;28;19919;-71
2023/08/04 08:42:59;;;;;;;;;;;17.90;99.90;;;;;;5105795;28;19928;-69
2023/08/04 08:45:29;;;;;;;;;;;17.80;99.90;;;;;;5090058;28;20315;-69
2023/08/04 08:47:56;;;;;;;;;;;17.90;99.90;;;;;;5100938;28;19912;-68
2023/08/04 08:50:24;;;;;;;;;;;17.90;99.90;;;;;;5107348;28;19992;-67
2023/08/04 08:52:52;;;;;;;;;;;17.80;99.90;;;;;;5110688;28;20341;-69
2023/08/04 08:55:19;;;;;;;;;;;17.80;99.90;;;;;;5098311;28;19918;-70
2023/08/04 08:57:46;;;;;;;;;;;17.70;99.90;;;;;;5106619;28;20007;-72
2023/08/04 09:00:13;;;;;;;;;;;17.70;99.90;;;;;;5108658;28;19920;-69
2023/08/04 09:02:40;;;;;;;;;;;17.60;99.90;;;;;;5110985;28;19918;-66
2023/08/04 09:05:07;;;;;;;;;;;17.60;99.90;;;;;;5100374;28;19936;-67
2023/08/04 09:07:33;;;;;;;;;;;17.60;99.90;;;;;;5096894;28;19923;-66
2023/08/04 09:10:00;;;;;;;;;;;17.50;99.90;;;;;;5090520;28;19961;-70
2023/08/04 09:12:27;;;;;;;;;;;17.50;99.90;;;;;;5108461;28;19912;-67
2023/08/04 09:14:55;;;;;;;;;;;17.50;99.90;;;;;;5111390;28;19973;-68
2023/08/04 09:17:30;;;;;;;;;;;17.40;99.90;;;;;;5105005;28;20361;-66
2023/08/04 09:19:58;;;;;;;;;;;17.40;99.90;;;;;;5090018;28;20344;-70
2023/08/04 09:22:28;;;;;;;;;;;17.40;99.90;;;;;;5099421;28;19919;-66
2023/08/04 09:25:01;;;;;;;;;;;17.30;99.90;;;;;;5090993;28;19928;-70
2023/08/04 09:27:29;;;;;;;;;;;17.30;99.90;;;;;;5096421;28;19920;-67
2023/08/04 09:29:57;;;;;;;;;;;17.30;99.90;;;;;;5089828;28;19919;-67
2023/08/04 09:32:23;;;;;;;;;;;17.30;99.90;;;;;;5089614;28;19942;-67
2023/08/04 09:35:00;;;;;;;;;;;17.30;99.90;;;;;;5101179;28;19912;-67
2023/08/04 09:37:27;;;;;;;;;;;17.30;99.90;;;;;;5108789;28;20432;-65
2023/08/04 09:39:54;;;;;;;;;;;17.20;99.90;;;;;;5107525;27;19947;-68
2023/08/04 09:42:21;;;;;;;;;;;17.20;99.90;;;;;;5092534;28;19962;-66
2023/08/04 09:44:52;;;;;;;;;;;17.20;99.90;;;;;;5105297;28;19947;-68
2023/08/04 09:47:22;;;;;;;;;;;17.20;99.90;;;;;;5110052;28;20372;-70
2023/08/04 09:49:49;;;;;;;;;;;17.10;99.90;;;;;;5122720;27;19924;-71
2023/08/04 09:52:20;;;;;;;;;;;17.10;99.90;;;;;;5113764;28;20306;-70
2023/08/04 09:54:46;;;;;;;;;;;17.10;99.90;;;;;;5113538;27;19914;-70
2023/08/04 09:57:16;;;;;;;;;;;17.10;99.90;;;;;;5113607;28;20376;-69
2023/08/04 09:59:43;;;;;;;;;;;17.10;99.90;;;;;;5112734;28;20245;-68
2023/08/04 10:02:10;;;;;;;;;;;17.00;99.90;;;;;;5115073;28;19919;-68
2023/08/04 10:04:37;;;;;;;;;;;17.00;99.90;;;;;;5103588;28;19916;-69
2023/08/04 10:07:04;;;;;;;;;;;17.10;99.90;;;;;;5094498;28;20349;-70
2023/08/04 10:09:31;;;;;;;;;;;17.00;99.90;;;;;;5110583;28;19912;-68
2023/08/04 10:12:01;;;;;;;;;;;17.00;99.90;;;;;;5112917;28;20007;-65
2023/08/04 10:14:28;;;;;;;;;;;17.00;99.90;;;;;;5088935;28;19919;-69
2023/08/04 10:16:57;;;;;;;;;;;16.90;99.90;;;;;;5112587;28;20002;-66
2023/08/04 10:19:23;;;;;;;;;;;16.90;99.90;;;;;;5103838;28;19996;-67
2023/08/04 10:21:51;;;;;;;;;;;16.90;99.90;;;;;;5092403;28;19947;-67
2023/08/04 10:24:21;;;;;;;;;;;16.90;99.90;;;;;;5103753;28;19950;-72
2023/08/04 10:26:49;;;;;;;;;;;16.80;99.90;;;;;;5111684;28;20352;-69
2023/08/04 10:29:16;;;;;;;;;;;16.80;99.90;;;;;;5111749;28;19972;-71
2023/08/04 10:31:48;;;;;;;;;;;16.80;99.90;;;;;;5113160;28;19911;-70
2023/08/04 10:34:28;;;;;;;;;;;16.80;99.90;;;;;;5112993;28;19918;-70
2023/08/04 10:36:55;;;;;;;;;;;16.60;99.90;;;;;;5112003;28;19959;-69
2023/08/04 10:39:26;;;;;;;;;;;16.60;99.90;;;;;;5111414;28;19912;-66
2023/08/04 10:41:53;;;;;;;;;;;16.50;99.90;;;;;;5113084;28;20328;-70
2023/08/04 10:44:20;;;;;;;;;;;16.40;99.90;;;;;;5113453;28;20018;-66
2023/08/04 10:46:49;;;;;;;;;;;16.40;99.90;;;;;;5113529;28;19920;-69
2023/08/04 10:49:16;;;;;;;;;;;16.30;99.90;;;;;;5111487;28;19954;-67
2023/08/04 10:51:45;;;;;;;;;;;16.20;99.90;;;;;;5112160;28;20348;-68
2023/08/04 10:54:12;;;;;;;;;;;16.20;99.90;;;;;;5111526;28;19912;-68
2023/08/04 10:56:39;;;;;;;;;;;16.10;99.90;;;;;;5113830;28;19908;-69
2023/08/04 10:59:08;;;;;;;;;;;16.10;99.90;;;;;;5110007;28;20397;-70
2023/08/04 11:01:35;;;;;;;;;;;16.00;99.90;;;;;;5109830;28;19912;-71
2023/08/04 11:04:02;;;;;;;;;;;16.00;99.90;;;;;;5111351;28;19965;-67
2023/08/04 11:06:28;;;;;;;;;;;15.90;99.90;;;;;;5104312;28;20443;-67
2023/08/04 11:08:56;;;;;;;;;;;15.80;99.90;;;;;;5104413;28;20265;-68
2023/08/04 11:11:23;;;;;;;;;;;15.80;99.90;;;;;;5112320;28;20379;-68
2023/08/04 11:13:49;;;;;;;;;;;15.70;99.90;;;;;;5098203;28;19920;-69
2023/08/04 11:16:16;;;;;;;;;;;15.70;99.90;;;;;;5093635;28;19909;-67
2023/08/04 11:18:43;;;;;;;;;;;15.70;99.90;;;;;;5097463;27;19916;-67
2023/08/04 11:21:10;;;;;;;;;;;15.60;99.90;;;;;;5093102;28;19912;-68
2023/08/04 11:23:36;;;;;;;;;;;15.50;99.90;;;;;;5083187;28;19920;-69
2023/08/04 11:26:03;;;;;;;;;;;15.50;99.90;;;;;;5113479;28;19912;-69
2023/08/04 11:28:32;;;;;;;;;;;15.50;99.90;;;;;;5104523;28;19912;-70
2023/08/04 11:31:05;;;;;;;;;;;15.50;99.90;;;;;;5113120;28;20398;-68
2023/08/04 11:33:32;;;;;;;;;;;15.50;99.90;;;;;;5113420;28;19919;-68
2023/08/04 11:36:01;;;;;;;;;;;15.50;99.90;;;;;;5113565;28;19908;-70
2023/08/04 11:38:28;;;;;;;;;;;15.60;99.90;;;;;;5104810;28;19911;-68
2023/08/04 11:41:01;;;;;;;;;;;15.50;99.90;;;;;;5111357;28;19911;-70
2023/08/04 11:43:30;;;;;;;;;;;15.50;99.90;;;;;;5098633;28;19920;-68
2023/08/04 11:45:57;;;;;;;;;;;15.50;99.90;;;;;;5113186;28;19923;-65
2023/08/04 11:48:23;;;;;;;;;;;15.50;99.90;;;;;;5104115;28;20010;-67
2023/08/04 11:50:53;;;;;;;;;;;15.50;99.90;;;;;;5111871;28;19912;-65
2023/08/04 11:53:20;;;;;;;;;;;15.40;99.90;;;;;;5116470;27;20299;-67
2023/08/04 11:55:56;;;;;;;;;;;15.50;99.90;;;;;;5133706;27;19907;-67
2023/08/04 11:58:29;;;;;;;;;;;15.40;99.90;;;;;;5108892;27;19915;-69
2023/08/04 12:00:56;;;;;;;;;;;15.40;99.90;;;;;;5095303;28;19952;-68
2023/08/04 12:03:23;;;;;;;;;;;15.40;99.90;;;;;;5108794;27;20205;-70
2023/08/04 12:05:50;;;;;;;;;;;15.30;99.90;;;;;;5112045;28;19964;-68
2023/08/04 12:08:17;;;;;;;;;;;15.30;99.90;;;;;;5107921;27;19916;-67
2023/08/04 12:10:44;;;;;;;;;;;15.30;99.90;;;;;;5106272;28;20335;-68
2023/08/04 12:13:30;;;;;;;;;;;15.30;99.90;;;;;;5105813;28;19911;-67
2023/08/04 12:15:57;;;;;;;;;;;15.30;99.90;;;;;;5108392;28;19923;-66
2023/08/04 12:18:28;;;;;;;;;;;15.30;99.90;;;;;;5090416;28;19923;-66
2023/08/04 12:20:56;;;;;;;;;;;15.30;99.90;;;;;;5111045;28;20015;-66
2023/08/04 12:23:23;;;;;;;;;;;15.30;99.90;;;;;;5110193;28;19924;-68
2023/08/04 12:25:49;;;;;;;;;;;15.20;99.90;;;;;;5111600;28;19912;-66
2023/08/04 12:28:16;;;;;;;;;;;15.20;99.90;;;;;;5110735;28;19918;-65
2023/08/04 12:30:43;;;;;;;;;;;15.20;99.90;;;;;;5111101;28;19924;-69
2023/08/04 12:33:10;;;;;;;;;;;15.10;99.90;;;;;;5110828;28;20311;-70
2023/08/04 12:35:36;;;;;;;;;;;15.10;99.90;;;;;;5110704;28;19919;-67
2023/08/04 12:38:05;;;;;;;;;;;15.00;99.90;;;;;;5109186;28;19920;-67
2023/08/04 12:40:32;;;;;;;;;;;15.00;99.90;;;;;;5088428;28;19912;-68
2023/08/04 12:43:00;;;;;;;;;;;14.90;99.90;;;;;;5110211;28;19912;-68
2023/08/04 12:45:27;;;;;;;;;;;14.90;99.90;;;;;;5111097;28;19968;-68
2023/08/04 12:47:54;;;;;;;;;;;14.90;99.90;;;;;;5111020;28;20284;-68
2023/08/04 12:50:20;;;;;;;;;;;14.90;99.90;;;;;;5109069;28;19911;-69
2023/08/04 12:52:47;;;;;;;;;;;14.80;99.90;;;;;;5109858;28;19911;-69
2023/08/04 12:55:14;;;;;;;;;;;14.80;99.90;;;;;;5109498;28;19943;-70
2023/08/04 12:57:40;;;;;;;;;;;14.70;99.90;;;;;;5109230;28;19927;-70
2023/08/04 13:00:07;;;;;;;;;;;14.70;99.90;;;;;;5111483;28;19904;-66
2023/08/04 13:02:34;;;;;;;;;;;14.70;99.90;;;;;;5110992;28;20037;-71
2023/08/04 13:05:00;;;;;;;;;;;14.60;99.90;;;;;;5092988;28;19980;-69
2023/08/04 13:07:27;;;;;;;;;;;14.70;99.90;;;;;;5110116;28;19957;-70
2023/08/04 13:09:54;;;;;;;;;;;14.60;99.90;;;;;;5112558;28;19916;-69
2023/08/04 13:12:20;;;;;;;;;;;14.60;99.90;;;;;;5115492;28;20395;-70
2023/08/04 13:14:47;;;;;;;;;;;14.50;99.90;;;;;;5115591;28;20044;-69
2023/08/04 13:17:13;;;;;;;;;;;14.50;99.90;;;;;;5116027;28;20003;-66
2023/08/04 13:19:40;;;;;;;;;;;14.50;99.90;;;;;;5115466;28;19915;-70
2023/08/04 13:22:07;;;;;;;;;;;14.40;99.90;;;;;;5110720;28;19961;-69
2023/08/04 13:24:33;;;;;;;;;;;14.40;99.90;;;;;;5116709;28;19919;-68
2023/08/04 13:27:00;;;;;;;;;;;14.30;99.90;;;;;;5116505;28;19930;-68
2023/08/04 13:29:27;;;;;;;;;;;14.30;99.90;;;;;;5116460;28;19908;-71
2023/08/04 13:31:53;;;;;;;;;;;14.30;99.90;;;;;;5115172;28;19916;-70
2023/08/04 13:34:20;;;;;;;;;;;14.30;99.90;;;;;;5098175;28;19998;-70
2023/08/04 13:36:48;;;;;;;;;;;14.30;99.90;;;;;;5116521;28;19908;-70
2023/08/04 13:39:15;;;;;;;;;;;14.20;99.90;;;;;;5116549;28;19953;-68
2023/08/04 13:41:41;;;;;;;;;;;14.20;99.90;;;;;;5116579;28;19977;-69
2023/08/04 13:44:08;;;;;;;;;;;14.20;99.90;;;;;;5116387;28;19920;-67
2023/08/04 13:46:34;;;;;;;;;;;14.20;99.90;;;;;;5116379;28;19907;-69
2023/08/04 13:49:01;;;;;;;;;;;14.20;99.90;;;;;;5110656;28;19955;-66
2023/08/04 13:51:28;;;;;;;;;;;14.20;99.90;;;;;;5111493;28;20512;-69
2023/08/04 13:53:56;;;;;;;;;;;14.20;99.90;;;;;;5114374;28;19915;-69
2023/08/04 13:56:23;;;;;;;;;;;14.20;99.90;;;;;;5115087;28;20280;-67
2023/08/04 13:58:52;;;;;;;;;;;14.10;99.90;;;;;;5114697;28;19919;-66
2023/08/04 14:01:19;;;;;;;;;;;14.20;99.90;;;;;;5116190;28;19912;-69
2023/08/04 14:03:45;;;;;;;;;;;14.20;99.90;;;;;;5116032;28;19912;-69
2023/08/04 14:06:12;;;;;;;;;;;14.20;99.90;;;;;;5116243;28;19960;-67
2023/08/04 14:08:39;;;;;;;;;;;14.20;99.90;;;;;;5115117;28;19908;-68
2023/08/04 14:11:05;;;;;;;;;;;14.20;99.90;;;;;;5116161;28;19908;-68
2023/08/04 14:13:32;;;;;;;;;;;14.30;99.90;;;;;;5115905;28;19912;-69
2023/08/04 14:16:07;;;;;;;;;;;14.30;99.90;;;;;;5115909;28;19911;-68